createdAt,value
2022-12-29T00:01:44.051Z,10.63
2022-12-29T00:04:15.500Z,7.43
2022-12-29T00:06:44.080Z,9.05
2022-12-29T00:09:16.846Z,8.35
2022-12-29T00:11:43.995Z,10.07
2022-12-29T00:14:38.422Z,10.43
2022-12-29T00:17:05.327Z,11.70
2022-12-29T00:19:50.962Z,8.63
2022-12-29T00:22:36.719Z,12.82
2022-12-29T00:25:23.288Z,10.13
2022-12-29T00:28:08.918Z,11.20
2022-12-29T00:30:55.440Z,9.73
2022-12-29T00:33:45.141Z,13.70
2022-12-29T00:36:21.202Z,8.30
2022-12-29T00:39:12.628Z,6.65
2022-12-29T00:41:58.272Z,6.18
2022-12-29T00:44:25.128Z,9.50
2022-12-29T00:46:52.051Z,7.45
2022-12-29T00:49:31.529Z,7.95
2022-12-29T00:52:03.261Z,5.45
2022-12-29T00:54:32.491Z,7.45
2022-12-29T00:56:59.497Z,7.60
2022-12-29T00:59:26.985Z,9.88
2022-12-29T01:01:55.187Z,10.30
2022-12-29T01:04:24.541Z,7.40
2022-12-29T01:06:52.092Z,10.32
2022-12-29T01:09:38.726Z,9.13
2022-12-29T01:12:07.444Z,8.35
2022-12-29T01:14:35.431Z,5.47
2022-12-29T01:17:03.863Z,7.68
2022-12-29T01:19:30.772Z,7.70
2022-12-29T01:21:57.950Z,7.57
2022-12-29T01:24:26.492Z,8.40
2022-12-29T01:26:53.549Z,6.18
2022-12-29T01:29:20.517Z,8.75
2022-12-29T01:31:47.528Z,10.25
2022-12-29T01:34:14.618Z,9.93
2022-12-29T01:36:41.467Z,10.98
2022-12-29T01:39:08.460Z,8.82
2022-12-29T01:41:35.285Z,7.63
2022-12-29T01:44:03.790Z,7.20
2022-12-29T01:46:49.618Z,10.93
2022-12-29T01:49:20.284Z,7.75
2022-12-29T01:51:49.327Z,9.05
2022-12-29T01:54:30.547Z,7.43
2022-12-29T01:57:01.194Z,7.28
2022-12-29T01:59:35.796Z,8.00
2022-12-29T02:04:33.372Z,11.15
2022-12-29T02:07:05.327Z,10.55
2022-12-29T02:09:32.374Z,10.80
2022-12-29T02:12:00.661Z,7.47
2022-12-29T02:14:27.457Z,12.02
2022-12-29T02:17:07.512Z,7.25
2022-12-29T02:19:56.207Z,11.65
2022-12-29T02:23:14.228Z,8.75
2022-12-29T02:26:21.252Z,6.85
2022-12-29T02:29:28.102Z,8.57
2022-12-29T02:32:15.139Z,7.55
2022-12-29T02:35:04.229Z,12.90
2022-12-29T02:37:45.851Z,5.22
2022-12-29T02:40:15.903Z,7.45
2022-12-29T02:42:48.420Z,11.57
2022-12-29T02:45:33.893Z,8.48
2022-12-29T02:48:10.207Z,6.82
2022-12-29T02:50:48.538Z,9.05
2022-12-29T02:53:38.695Z,7.72
2022-12-29T02:56:05.753Z,11.45
2022-12-29T02:58:32.635Z,6.97
2022-12-29T03:01:11.686Z,6.97
2022-12-29T03:03:56.978Z,8.85
2022-12-29T03:06:39.158Z,9.90
2022-12-29T03:09:18.347Z,7.63
2022-12-29T03:26:17.312Z,8.45
2022-12-29T03:28:52.987Z,10.50
2022-12-29T03:31:25.407Z,8.13
2022-12-29T03:33:54.765Z,8.35
2022-12-29T03:36:31.785Z,8.07
2022-12-29T03:39:07.033Z,7.35
2022-12-29T03:41:35.555Z,9.05
2022-12-29T03:44:06.538Z,8.00
2022-12-29T03:46:35.130Z,8.32
2022-12-29T03:49:03.009Z,10.68
2022-12-29T03:51:30.099Z,9.27
2022-12-29T03:53:57.706Z,11.10
2022-12-29T03:56:25.240Z,10.55
2022-12-29T03:58:53.519Z,10.50
2022-12-29T04:01:38.160Z,13.45
2022-12-29T04:04:05.554Z,11.52
2022-12-29T04:06:32.608Z,9.18
2022-12-29T04:09:06.353Z,7.88
2022-12-29T04:11:39.295Z,8.07
2022-12-29T04:14:06.701Z,10.82
2022-12-29T04:16:36.854Z,9.45
2022-12-29T04:19:07.195Z,9.80
2022-12-29T04:21:36.024Z,12.02
2022-12-29T04:24:03.125Z,9.02
2022-12-29T04:26:31.833Z,11.13
2022-12-29T04:29:08.455Z,10.00
2022-12-29T04:31:43.315Z,11.20
2022-12-29T04:34:11.058Z,9.52
2022-12-29T04:36:40.850Z,9.40
2022-12-29T04:39:08.351Z,9.90
2022-12-29T04:41:36.709Z,10.65
2022-12-29T04:44:08.616Z,10.20
2022-12-29T04:46:47.447Z,14.88
2022-12-29T04:49:34.236Z,14.00
2022-12-29T04:52:11.620Z,19.23
2022-12-29T04:54:38.825Z,17.98
2022-12-29T04:57:15.869Z,18.70
2022-12-29T04:59:48.829Z,14.57
2022-12-29T05:02:17.111Z,17.45
2022-12-29T05:04:47.477Z,14.32
2022-12-29T05:07:16.010Z,13.00
2022-12-29T05:09:44.592Z,15.13
2022-12-29T05:12:11.606Z,16.30
2022-12-29T05:14:47.147Z,11.63
2022-12-29T05:18:10.600Z,14.70
2022-12-29T05:23:07.756Z,12.15
2022-12-29T05:25:37.384Z,10.65
2022-12-29T05:28:14.931Z,11.45
2022-12-29T05:30:52.338Z,14.07
2022-12-29T05:33:20.966Z,11.73
2022-12-29T05:35:50.074Z,15.65
2022-12-29T05:38:18.556Z,11.50
2022-12-29T05:40:46.206Z,12.27
2022-12-29T05:43:33.277Z,13.18
2022-12-29T05:46:17.688Z,16.73
2022-12-29T05:49:18.416Z,17.48
2022-12-29T05:52:42.643Z,14.25
2022-12-29T05:55:09.670Z,15.45
2022-12-29T05:57:38.740Z,20.83
2022-12-29T06:00:11.714Z,13.95
2022-12-29T06:02:47.116Z,14.18
2022-12-29T06:05:16.172Z,10.73
2022-12-29T06:07:43.883Z,15.05
2022-12-29T06:10:10.941Z,12.20
2022-12-29T06:12:44.733Z,13.95
2022-12-29T06:15:11.898Z,14.20
2022-12-29T06:17:41.797Z,12.00
2022-12-29T06:20:10.779Z,15.30
2022-12-29T06:22:38.248Z,12.40
2022-12-29T06:25:06.516Z,16.88
2022-12-29T06:27:35.061Z,10.88
2022-12-29T06:30:02.167Z,13.80
2022-12-29T06:32:29.268Z,11.25
2022-12-29T06:35:02.746Z,12.23
2022-12-29T06:37:29.753Z,14.35
2022-12-29T06:39:56.965Z,13.25
2022-12-29T06:42:28.702Z,10.63
2022-12-29T06:45:18.837Z,4.95
2022-12-29T06:47:46.130Z,16.50
2022-12-29T06:50:13.177Z,11.48
2022-12-29T06:52:40.082Z,7.88
2022-12-29T06:55:07.466Z,9.88
2022-12-29T06:57:34.367Z,9.02
2022-12-29T07:00:01.358Z,13.13
2022-12-29T07:02:28.326Z,13.25
2022-12-29T07:04:55.391Z,9.30
2022-12-29T07:07:22.347Z,11.05
2022-12-29T07:09:49.351Z,6.20
2022-12-29T07:12:16.348Z,5.47
2022-12-29T07:14:44.602Z,5.43
2022-12-29T07:17:11.992Z,8.23
2022-12-29T07:19:39.042Z,8.32
2022-12-29T07:22:11.405Z,6.65
2022-12-29T07:24:38.602Z,9.52
2022-12-29T07:27:05.929Z,11.75
2022-12-29T07:29:33.204Z,11.50
2022-12-29T07:32:00.495Z,12.30
2022-12-29T07:34:27.564Z,7.78
2022-12-29T07:36:54.793Z,6.78
2022-12-29T07:39:21.780Z,6.50
2022-12-29T07:41:48.619Z,9.75
2022-12-29T07:44:19.391Z,6.80
2022-12-29T07:46:59.461Z,6.90
2022-12-29T07:49:27.513Z,8.20
2022-12-29T07:51:54.388Z,7.82
2022-12-29T07:54:21.488Z,6.43
2022-12-29T07:56:48.351Z,17.42
2022-12-29T07:59:15.259Z,7.93
2022-12-29T08:01:42.288Z,7.43
2022-12-29T08:04:09.697Z,5.38
2022-12-29T08:06:37.790Z,9.07
2022-12-29T08:09:12.435Z,9.15
2022-12-29T08:11:41.835Z,6.07
2022-12-29T08:14:08.615Z,11.15
2022-12-29T08:16:38.047Z,6.10
2022-12-29T08:19:06.119Z,7.18
2022-12-29T08:21:33.351Z,10.52
2022-12-29T08:24:00.394Z,10.13
2022-12-29T08:26:27.391Z,9.35
2022-12-29T08:28:55.510Z,13.20
2022-12-29T08:31:23.053Z,9.93
2022-12-29T08:33:53.815Z,12.27
2022-12-29T08:36:20.888Z,10.05
2022-12-29T08:38:47.998Z,13.45
2022-12-29T08:41:15.604Z,16.52
2022-12-29T08:43:42.461Z,11.38
2022-12-29T08:46:09.358Z,10.75
2022-12-29T08:48:36.244Z,13.02
2022-12-29T08:51:03.687Z,11.38
2022-12-29T08:53:33.033Z,16.27
2022-12-29T08:56:05.394Z,8.30
2022-12-29T08:58:42.294Z,10.27
2022-12-29T09:01:11.094Z,34.70
2022-12-29T09:04:12.688Z,8.35
2022-12-29T09:06:25.361Z,9.10
2022-12-29T09:08:55.949Z,8.43
2022-12-29T09:11:25.005Z,8.52
2022-12-29T09:13:53.081Z,8.02
2022-12-29T09:16:22.508Z,8.15
2022-12-29T09:18:49.676Z,8.90
2022-12-29T09:21:17.973Z,9.57
2022-12-29T09:23:44.915Z,9.07
2022-12-29T09:26:11.903Z,14.82
2022-12-29T09:28:39.112Z,7.78
2022-12-29T09:31:06.237Z,11.20
2022-12-29T09:33:35.860Z,7.47
2022-12-29T09:36:03.683Z,6.07
2022-12-29T09:38:30.981Z,8.75
2022-12-29T09:41:27.740Z,7.13
2022-12-29T09:44:06.228Z,11.90
2022-12-29T09:46:41.537Z,11.50
2022-12-29T09:49:22.308Z,9.80
2022-12-29T09:51:54.605Z,20.50
2022-12-29T09:54:54.932Z,13.23
2022-12-29T10:00:01.587Z,9.30
2022-12-29T10:02:38.952Z,13.52
2022-12-29T10:05:24.429Z,10.07
2022-12-29T10:08:27.688Z,16.92
2022-12-29T10:11:16.847Z,8.73
2022-12-29T10:13:52.883Z,12.18
2022-12-29T10:16:35.165Z,13.98
2022-12-29T10:19:02.058Z,11.77
2022-12-29T10:21:42.822Z,13.68
2022-12-29T10:24:13.258Z,19.02
2022-12-29T10:26:45.188Z,12.55
2022-12-29T10:29:19.984Z,9.85
2022-12-29T10:32:07.645Z,12.23
2022-12-29T10:34:40.740Z,13.25
2022-12-29T10:37:34.118Z,13.83
2022-12-29T10:40:13.939Z,10.43
2022-12-29T10:42:46.130Z,11.48
2022-12-29T10:45:15.599Z,10.52
2022-12-29T10:48:20.400Z,8.27
2022-12-29T10:50:48.702Z,9.45
2022-12-29T10:53:26.477Z,9.70
2022-12-29T10:55:54.682Z,13.30
2022-12-29T10:58:22.266Z,13.30
2022-12-29T11:00:54.807Z,9.98
2022-12-29T11:03:47.052Z,10.00
2022-12-29T11:06:28.505Z,9.60
2022-12-29T11:08:59.646Z,6.88
2022-12-29T11:11:44.574Z,6.40
2022-12-29T11:14:19.513Z,7.15
2022-12-29T11:16:58.202Z,7.45
2022-12-29T11:19:28.084Z,6.15
2022-12-29T11:21:55.720Z,7.55
2022-12-29T11:24:30.779Z,5.80
2022-12-29T11:27:21.645Z,5.93
2022-12-29T11:29:49.854Z,7.57
2022-12-29T11:32:28.490Z,6.72
2022-12-29T11:34:58.453Z,6.30
2022-12-29T11:37:32.609Z,8.05
2022-12-29T11:40:05.458Z,7.28
2022-12-29T11:42:43.147Z,10.65
2022-12-29T11:45:17.573Z,7.25
2022-12-29T11:47:48.192Z,6.00
2022-12-29T11:50:36.988Z,6.53
2022-12-29T11:53:24.934Z,6.60
2022-12-29T11:55:58.700Z,7.97
2022-12-29T12:01:24.384Z,10.57
2022-12-29T12:04:02.662Z,5.55
2022-12-29T12:06:35.153Z,11.00
2022-12-29T12:09:15.738Z,7.70
2022-12-29T12:11:46.451Z,7.47
2022-12-29T12:14:38.792Z,7.70
2022-12-29T12:17:39.495Z,8.10
2022-12-29T12:20:25.853Z,5.57
2022-12-29T12:22:52.992Z,17.38
2022-12-29T12:25:24.801Z,11.73
2022-12-29T12:28:05.529Z,10.32
2022-12-29T12:30:40.305Z,10.75
2022-12-29T12:33:16.435Z,7.65
2022-12-29T12:35:57.905Z,7.95
2022-12-29T12:38:36.523Z,11.93
2022-12-29T12:41:34.986Z,6.57
2022-12-29T12:44:19.932Z,7.28
2022-12-29T12:47:12.856Z,13.00
2022-12-29T12:49:49.237Z,10.30
2022-12-29T12:52:43.738Z,9.32
2022-12-29T12:55:19.709Z,9.65
2022-12-29T12:58:10.499Z,11.88
2022-12-29T13:01:06.428Z,8.52
2022-12-29T13:04:00.859Z,16.77
2022-12-29T13:06:48.147Z,9.60
2022-12-29T13:09:42.217Z,16.55
2022-12-29T13:12:16.137Z,8.70
2022-12-29T13:17:27.185Z,10.00
2022-12-29T13:20:11.301Z,10.32
2022-12-29T13:22:51.429Z,11.60
2022-12-29T13:25:35.533Z,11.88
2022-12-29T13:28:21.204Z,9.55
2022-12-29T13:31:05.767Z,10.55
2022-12-29T13:33:42.457Z,15.07
2022-12-29T13:36:26.241Z,12.15
2022-12-29T13:39:04.439Z,10.50
2022-12-29T13:41:40.746Z,11.27
2022-12-29T13:44:13.260Z,10.93
2022-12-29T13:46:43.642Z,13.50
2022-12-29T13:49:19.808Z,11.70
2022-12-29T13:51:51.328Z,12.85
2022-12-29T13:54:55.628Z,12.63
2022-12-29T13:57:59.523Z,14.75
2022-12-29T14:00:31.528Z,15.70
2022-12-29T14:03:05.870Z,14.48
2022-12-29T14:08:06.016Z,14.57
2022-12-29T14:10:39.042Z,14.88
2022-12-29T14:13:22.265Z,15.95
2022-12-29T14:15:55.245Z,12.10
2022-12-29T14:18:28.063Z,17.50
2022-12-29T14:21:05.414Z,22.17
2022-12-29T14:23:35.374Z,13.25
2022-12-29T14:26:08.379Z,18.35
2022-12-29T14:28:42.158Z,14.30
2022-12-29T14:31:15.042Z,17.08
2022-12-29T14:34:02.534Z,20.33
2022-12-29T14:36:38.878Z,22.02
2022-12-29T14:39:31.311Z,18.80
2022-12-29T14:42:10.051Z,19.20
2022-12-29T14:45:01.924Z,19.55
2022-12-29T14:47:35.374Z,12.18
2022-12-29T14:50:05.019Z,18.33
2022-12-29T14:52:32.577Z,21.15
2022-12-29T14:55:08.321Z,20.80
2022-12-29T14:57:42.001Z,17.83
2022-12-29T15:00:19.129Z,21.75
2022-12-29T15:03:15.607Z,16.17
2022-12-29T15:05:49.798Z,20.52
2022-12-29T15:08:25.153Z,20.30
2022-12-29T15:11:04.281Z,16.20
2022-12-29T15:28:22.546Z,20.00
2022-12-29T15:31:02.357Z,20.45
2022-12-29T15:33:30.150Z,23.83
2022-12-29T15:36:03.505Z,26.27
2022-12-29T15:38:38.645Z,23.40
2022-12-29T15:41:19.641Z,30.05
2022-12-29T15:43:54.406Z,33.15
2022-12-29T15:46:21.453Z,38.38
2022-12-29T15:48:48.995Z,33.22
2022-12-29T15:51:26.063Z,37.55
2022-12-29T15:53:53.732Z,38.25
2022-12-29T15:56:21.031Z,37.05
2022-12-29T15:58:51.461Z,31.10
2022-12-29T16:01:36.973Z,35.28
2022-12-29T16:04:09.595Z,35.42
2022-12-29T16:06:45.641Z,52.63
2022-12-29T16:09:20.880Z,60.10
2022-12-29T16:11:51.522Z,183.88
2022-12-29T16:14:22.562Z,203.23
2022-12-29T16:16:51.042Z,52.70
2022-12-29T16:19:49.703Z,31.98
2022-12-29T16:22:31.177Z,36.97
2022-12-29T16:25:04.797Z,34.95
2022-12-29T16:27:34.951Z,33.65
2022-12-29T16:30:17.368Z,25.35
2022-12-29T16:32:49.538Z,46.30
2022-12-29T16:35:45.304Z,39.75
2022-12-29T16:38:16.528Z,33.08
2022-12-29T16:40:59.785Z,26.65
2022-12-29T16:43:32.717Z,28.08
2022-12-29T16:46:17.004Z,26.27
2022-12-29T16:48:52.086Z,26.70
2022-12-29T16:51:43.929Z,26.27
2022-12-29T16:54:24.347Z,29.67
2022-12-29T16:56:52.775Z,33.38
2022-12-29T16:59:30.194Z,42.15
2022-12-29T17:01:59.587Z,34.78
2022-12-29T17:04:26.545Z,21.77
2022-12-29T17:06:53.433Z,27.63
2022-12-29T17:09:23.333Z,27.10
2022-12-29T17:12:01.246Z,26.50
2022-12-29T17:14:42.403Z,29.42
2022-12-29T17:17:12.627Z,35.08
2022-12-29T17:19:39.817Z,40.08
2022-12-29T17:22:14.518Z,28.17
2022-12-29T17:24:41.324Z,32.25
2022-12-29T17:27:10.593Z,40.53
2022-12-29T17:29:39.821Z,44.25
2022-12-29T17:32:12.860Z,34.45
2022-12-29T17:34:41.756Z,43.72
2022-12-29T17:37:30.066Z,39.33
2022-12-29T17:39:57.112Z,39.72
2022-12-29T17:42:24.256Z,40.00
2022-12-29T17:44:51.358Z,35.03
2022-12-29T17:47:18.229Z,35.13
2022-12-29T17:49:47.880Z,44.42
2022-12-29T17:52:17.168Z,32.17
2022-12-29T17:54:51.131Z,34.83
2022-12-29T17:57:19.384Z,43.80
2022-12-29T17:59:46.490Z,47.00
2022-12-29T18:02:30.889Z,41.35
2022-12-29T18:04:59.293Z,37.92
2022-12-29T18:07:35.435Z,43.60
2022-12-29T18:10:03.930Z,37.97
2022-12-29T18:12:37.945Z,44.20
2022-12-29T18:15:05.294Z,40.67
2022-12-29T18:17:32.192Z,33.92
2022-12-29T18:19:59.052Z,39.45
2022-12-29T18:22:29.004Z,41.28
2022-12-29T18:24:56.084Z,49.80
2022-12-29T18:27:23.092Z,53.70
2022-12-29T18:29:50.141Z,46.75
2022-12-29T18:32:17.901Z,41.78
2022-12-29T18:34:45.343Z,54.67
2022-12-29T18:37:13.171Z,42.83
2022-12-29T18:39:42.951Z,46.33
2022-12-29T18:42:16.167Z,41.78
2022-12-29T18:44:43.132Z,47.70
2022-12-29T18:47:10.146Z,42.28
2022-12-29T18:49:37.086Z,43.10
2022-12-29T18:52:04.055Z,44.42
2022-12-29T18:54:33.258Z,52.33
2022-12-29T18:57:00.288Z,41.78
2022-12-29T18:59:27.177Z,45.72
2022-12-29T19:01:54.156Z,38.17
2022-12-29T19:04:22.433Z,41.47
2022-12-29T19:06:49.297Z,45.95
2022-12-29T19:09:16.239Z,44.53
2022-12-29T19:11:43.390Z,45.72
2022-12-29T19:14:17.488Z,46.13
2022-12-29T19:16:49.950Z,45.75
2022-12-29T19:19:17.511Z,49.47
2022-12-29T19:21:44.753Z,42.65
2022-12-29T19:24:11.573Z,42.58
2022-12-29T19:26:40.614Z,44.67
2022-12-29T19:29:15.837Z,39.88
2022-12-29T19:31:42.995Z,43.35
2022-12-29T19:34:13.367Z,44.95
2022-12-29T19:36:41.742Z,37.25
2022-12-29T19:39:08.635Z,35.47
2022-12-29T19:41:35.572Z,42.67
2022-12-29T19:44:02.639Z,39.00
2022-12-29T19:46:29.724Z,41.15
2022-12-29T19:48:59.071Z,39.03
2022-12-29T19:51:26.321Z,50.05
2022-12-29T19:53:54.010Z,43.25
2022-12-29T19:56:21.075Z,46.28
2022-12-29T19:58:48.054Z,37.35
2022-12-29T20:01:19.115Z,43.33
2022-12-29T20:03:46.438Z,47.40
2022-12-29T20:06:14.153Z,44.33
2022-12-29T20:08:41.424Z,44.40
2022-12-29T20:11:10.087Z,38.95
2022-12-29T20:13:37.137Z,39.38
2022-12-29T20:16:07.719Z,38.22
2022-12-29T20:18:38.042Z,34.40
2022-12-29T20:21:13.210Z,37.25
2022-12-29T20:23:41.502Z,38.70
2022-12-29T20:26:13.479Z,40.20
2022-12-29T20:28:40.639Z,38.42
2022-12-29T20:31:14.432Z,34.00
2022-12-29T20:33:41.838Z,31.48
2022-12-29T20:36:12.366Z,35.55
2022-12-29T20:38:39.372Z,32.35
2022-12-29T20:41:06.539Z,34.95
2022-12-29T20:43:34.133Z,40.35
2022-12-29T20:46:00.991Z,39.65
2022-12-29T20:48:28.025Z,36.35
2022-12-29T20:50:59.481Z,34.30
2022-12-29T20:53:28.006Z,46.28
2022-12-29T20:55:55.469Z,38.58
2022-12-29T20:58:23.892Z,36.47
2022-12-29T21:00:51.528Z,38.55
2022-12-29T21:03:18.480Z,36.85
2022-12-29T21:05:46.108Z,39.33
2022-12-29T21:08:13.067Z,42.03
2022-12-29T21:10:39.950Z,32.65
2022-12-29T21:13:06.826Z,33.72
2022-12-29T21:15:33.621Z,33.67
2022-12-29T21:18:00.517Z,32.00
2022-12-29T21:20:31.672Z,28.70
2022-12-29T21:23:00.810Z,35.60
2022-12-29T21:25:38.993Z,32.33
2022-12-29T21:28:07.644Z,31.38
2022-12-29T21:30:35.205Z,33.05
2022-12-29T21:33:02.252Z,32.63
2022-12-29T21:35:29.131Z,35.90
2022-12-29T21:37:56.179Z,38.40
2022-12-29T21:40:23.020Z,31.95
2022-12-29T21:42:53.026Z,31.52
2022-12-29T21:45:25.853Z,30.98
2022-12-29T21:48:12.595Z,34.30
2022-12-29T21:51:02.678Z,34.22
2022-12-29T21:53:38.267Z,34.97
2022-12-29T21:56:19.724Z,40.85
2022-12-29T21:59:07.705Z,32.85
2022-12-29T22:01:56.371Z,36.45
2022-12-29T22:04:44.137Z,33.00
2022-12-29T22:07:31.129Z,40.75
2022-12-29T22:10:16.508Z,40.90
2022-12-29T22:13:01.853Z,38.45
2022-12-29T22:15:31.826Z,33.63
2022-12-29T22:17:59.983Z,38.42
2022-12-29T22:20:29.945Z,38.70
2022-12-29T22:22:56.880Z,37.63
2022-12-29T22:25:24.264Z,45.13
2022-12-29T22:27:55.640Z,40.00
2022-12-29T22:32:53.184Z,36.17
2022-12-29T22:35:20.003Z,41.50
2022-12-29T22:37:46.943Z,36.10
2022-12-29T22:40:13.894Z,32.92
2022-12-29T22:42:40.936Z,34.58
2022-12-29T22:45:08.380Z,32.58
2022-12-29T22:47:35.245Z,26.95
2022-12-29T22:50:02.382Z,29.10
2022-12-29T22:52:29.145Z,35.50
2022-12-29T22:54:58.185Z,28.55
2022-12-29T22:57:30.545Z,28.75
2022-12-29T22:59:57.639Z,26.30
2022-12-29T23:02:24.819Z,31.10
2022-12-29T23:05:07.269Z,33.20
2022-12-29T23:07:35.562Z,30.67
2022-12-29T23:10:03.990Z,26.15
2022-12-29T23:12:31.654Z,28.25
2022-12-29T23:14:58.662Z,26.15
2022-12-29T23:17:25.588Z,26.25
2022-12-29T23:19:53.564Z,26.83
2022-12-29T23:22:20.836Z,30.02
2022-12-29T23:24:47.708Z,26.50
2022-12-29T23:27:14.639Z,28.75
2022-12-29T23:29:41.591Z,32.22
2022-12-29T23:32:08.548Z,29.88
2022-12-29T23:34:35.494Z,29.55
2022-12-29T23:37:02.489Z,30.52
2022-12-29T23:39:29.596Z,30.58
2022-12-29T23:41:56.493Z,30.40
2022-12-29T23:44:23.497Z,34.08
2022-12-29T23:46:50.623Z,37.97
2022-12-29T23:49:17.653Z,34.97
2022-12-29T23:51:44.691Z,36.22
2022-12-29T23:54:11.592Z,29.90
2022-12-29T23:56:38.419Z,30.75
2022-12-29T23:59:06.231Z,27.42
